Time;durP1;ratioP1;P1;durP2;ratioP2;P2;SDS_P1;SDS_P2;PMS_P1;PMS_P2;Temp;Humidity;BMP_temperature;BMP_pressure;BME280_temperature;BME280_humidity;BME280_pressure;Samples;Min_cycle;Max_cycle;Signal;HPM_P1;HPM_P2
2023/07/30 00:00:57;;;;;;;;;;;19.40;85.80;;;;;;4979625;28;20028;-73
2023/07/30 00:03:50;;;;;;;;;;;19.30;85.90;;;;;;4979672;28;19972;-74
2023/07/30 00:06:30;;;;;;;;;;;19.30;85.90;;;;;;4980921;28;19921;-74
2023/07/30 00:09:00;;;;;;;;;;;19.30;85.80;;;;;;4981503;28;19922;-73
2023/07/30 00:11:31;;;;;;;;;;;19.20;85.80;;;;;;4981716;28;20003;-73
2023/07/30 00:14:10;;;;;;;;;;;19.20;86.00;;;;;;4979475;28;19925;-74
2023/07/30 00:19:56;;;;;;;;;;;19.10;86.10;;;;;;4985446;28;20059;-74
2023/07/30 00:22:25;;;;;;;;;;;19.10;86.10;;;;;;4983802;28;19922;-72
2023/07/30 00:24:52;;;;;;;;;;;19.10;86.10;;;;;;4984409;28;19941;-72
2023/07/30 00:27:19;;;;;;;;;;;19.10;86.20;;;;;;4984807;28;19922;-73
2023/07/30 00:29:46;;;;;;;;;;;19.10;86.30;;;;;;4981713;28;19932;-73
2023/07/30 00:32:15;;;;;;;;;;;19.10;86.40;;;;;;4983765;28;20028;-74
2023/07/30 00:34:43;;;;;;;;;;;19.10;86.40;;;;;;4985385;28;19953;-73
2023/07/30 00:37:10;;;;;;;;;;;19.10;86.50;;;;;;4983724;28;19953;-73
2023/07/30 00:39:39;;;;;;;;;;;19.00;86.50;;;;;;4999215;28;19922;-73
2023/07/30 00:42:06;;;;;;;;;;;19.00;86.60;;;;;;4983140;28;19929;-70
2023/07/30 00:44:33;;;;;;;;;;;19.00;86.60;;;;;;4981782;28;19926;-72
2023/07/30 00:47:00;;;;;;;;;;;19.00;86.70;;;;;;4982736;28;20371;-72
2023/07/30 00:49:27;;;;;;;;;;;19.00;86.80;;;;;;4983148;28;19937;-72
2023/07/30 00:51:57;;;;;;;;;;;18.90;86.80;;;;;;4997540;28;19928;-72
2023/07/30 00:54:25;;;;;;;;;;;18.90;86.80;;;;;;4997385;28;19934;-73
2023/07/30 00:56:54;;;;;;;;;;;18.90;86.90;;;;;;4981747;28;20105;-72
2023/07/30 00:59:21;;;;;;;;;;;18.90;86.90;;;;;;4995874;28;19933;-72
2023/07/30 01:01:48;;;;;;;;;;;18.90;86.90;;;;;;4984390;28;20082;-73
2023/07/30 01:04:15;;;;;;;;;;;18.80;87.00;;;;;;4982394;28;19922;-73
2023/07/30 01:06:42;;;;;;;;;;;18.80;87.10;;;;;;4984536;28;19921;-73
2023/07/30 01:09:10;;;;;;;;;;;18.80;87.20;;;;;;4979531;28;19926;-71
2023/07/30 01:11:38;;;;;;;;;;;18.80;87.20;;;;;;4983711;28;19933;-74
2023/07/30 01:14:09;;;;;;;;;;;18.80;87.20;;;;;;4983963;28;19928;-73
2023/07/30 01:16:39;;;;;;;;;;;18.80;87.20;;;;;;4984159;28;19921;-73
2023/07/30 01:19:07;;;;;;;;;;;18.80;87.30;;;;;;4984616;28;19926;-72
2023/07/30 01:21:36;;;;;;;;;;;18.80;87.40;;;;;;4983922;28;19928;-73
2023/07/30 01:24:03;;;;;;;;;;;18.80;87.40;;;;;;4981150;28;19925;-74
2023/07/30 01:26:33;;;;;;;;;;;18.80;87.50;;;;;;4982329;28;20017;-73
2023/07/30 01:29:02;;;;;;;;;;;18.80;87.50;;;;;;4983353;28;19981;-73
2023/07/30 01:31:31;;;;;;;;;;;18.80;87.30;;;;;;4995069;28;20012;-73
2023/07/30 01:33:58;;;;;;;;;;;19.00;86.90;;;;;;4982220;28;19933;-72
2023/07/30 01:36:26;;;;;;;;;;;19.00;86.80;;;;;;4998528;28;19936;-73
2023/07/30 01:38:55;;;;;;;;;;;18.90;87.10;;;;;;4980529;28;19922;-73
2023/07/30 01:41:24;;;;;;;;;;;18.90;87.20;;;;;;4981644;28;19925;-73
2023/07/30 01:43:51;;;;;;;;;;;18.90;87.30;;;;;;4981649;28;19926;-75
2023/07/30 01:46:18;;;;;;;;;;;18.90;87.30;;;;;;4979588;28;19933;-75
2023/07/30 01:48:45;;;;;;;;;;;18.90;87.40;;;;;;4981457;28;19957;-73
2023/07/30 01:51:15;;;;;;;;;;;18.90;87.40;;;;;;4979074;28;20008;-74
2023/07/30 01:53:44;;;;;;;;;;;18.80;87.40;;;;;;4980867;28;20200;-72
2023/07/30 01:56:13;;;;;;;;;;;18.80;87.50;;;;;;4981700;28;20020;-72
2023/07/30 01:58:40;;;;;;;;;;;18.80;87.60;;;;;;4994371;28;19926;-73
2023/07/30 02:01:07;;;;;;;;;;;18.70;87.60;;;;;;4991669;28;19930;-72
2023/07/30 02:03:34;;;;;;;;;;;18.80;87.60;;;;;;4980016;28;20403;-73
2023/07/30 02:06:01;;;;;;;;;;;18.80;87.60;;;;;;4984085;28;19926;-73
2023/07/30 02:08:28;;;;;;;;;;;18.80;87.70;;;;;;4981111;28;19926;-75
2023/07/30 02:10:58;;;;;;;;;;;18.80;87.70;;;;;;4981558;28;19940;-74
2023/07/30 02:13:27;;;;;;;;;;;18.70;87.70;;;;;;4982531;28;19930;-73
2023/07/30 02:16:03;;;;;;;;;;;18.80;87.70;;;;;;4980938;28;19926;-74
2023/07/30 02:18:30;;;;;;;;;;;18.80;87.70;;;;;;4982937;28;19922;-73
2023/07/30 02:20:57;;;;;;;;;;;18.80;87.70;;;;;;4983178;28;19930;-73
2023/07/30 02:23:24;;;;;;;;;;;18.70;87.80;;;;;;4980857;28;19929;-74
2023/07/30 02:25:51;;;;;;;;;;;18.70;87.90;;;;;;4982166;28;19929;-74
2023/07/30 02:28:21;;;;;;;;;;;18.70;87.90;;;;;;4982220;28;20360;-73
2023/07/30 02:30:49;;;;;;;;;;;18.70;87.80;;;;;;4981728;28;19932;-74
2023/07/30 02:33:16;;;;;;;;;;;18.70;87.90;;;;;;4983412;28;20051;-74
2023/07/30 02:35:44;;;;;;;;;;;18.70;87.90;;;;;;4980418;28;20024;-75
2023/07/30 02:38:10;;;;;;;;;;;18.60;87.80;;;;;;4981654;28;20407;-74
2023/07/30 02:40:37;;;;;;;;;;;18.60;87.80;;;;;;4980592;28;19953;-73
2023/07/30 02:43:24;;;;;;;;;;;18.60;87.90;;;;;;4981759;28;19952;-73
2023/07/30 02:45:52;;;;;;;;;;;18.60;87.90;;;;;;4980548;28;19921;-74
2023/07/30 02:48:19;;;;;;;;;;;18.60;87.80;;;;;;4988293;28;19926;-74
2023/07/30 02:50:46;;;;;;;;;;;18.60;87.70;;;;;;4992480;28;20689;-74
2023/07/30 02:53:13;;;;;;;;;;;18.60;87.60;;;;;;4987802;28;19941;-73
2023/07/30 02:55:40;;;;;;;;;;;18.60;87.70;;;;;;4996993;28;19926;-73
2023/07/30 02:58:13;;;;;;;;;;;18.50;87.80;;;;;;4980228;28;19955;-73
2023/07/30 03:00:40;;;;;;;;;;;18.60;87.80;;;;;;4982326;28;19926;-73
2023/07/30 03:03:08;;;;;;;;;;;18.50;87.80;;;;;;4991519;28;19936;-71
2023/07/30 03:05:35;;;;;;;;;;;18.50;87.90;;;;;;4982121;28;19922;-73
2023/07/30 03:08:09;;;;;;;;;;;18.50;88.00;;;;;;4980341;28;19926;-73
2023/07/30 03:11:08;;;;;;;;;;;18.40;88.10;;;;;;4981190;28;19967;-72
2023/07/30 03:13:35;;;;;;;;;;;18.40;88.20;;;;;;4980259;28;19930;-73
2023/07/30 03:16:15;;;;;;;;;;;18.50;88.10;;;;;;4981995;28;19968;-73
2023/07/30 03:18:43;;;;;;;;;;;18.50;88.00;;;;;;4978100;28;19977;-74
2023/07/30 03:21:10;;;;;;;;;;;18.50;87.90;;;;;;4979150;28;19926;-74
2023/07/30 03:23:40;;;;;;;;;;;18.50;88.00;;;;;;4982315;28;19940;-72
2023/07/30 03:26:07;;;;;;;;;;;18.50;88.00;;;;;;4976451;28;19930;-70
2023/07/30 03:28:35;;;;;;;;;;;18.50;88.10;;;;;;4998233;28;19933;-73
2023/07/30 03:31:05;;;;;;;;;;;18.50;88.10;;;;;;4985760;28;19964;-72
2023/07/30 03:33:33;;;;;;;;;;;18.50;88.20;;;;;;4979515;28;19921;-72
2023/07/30 03:36:20;;;;;;;;;;;18.40;88.30;;;;;;4981574;28;19926;-72
2023/07/30 03:38:47;;;;;;;;;;;18.40;88.40;;;;;;4994894;28;20000;-71
2023/07/30 03:41:14;;;;;;;;;;;18.40;88.40;;;;;;4980329;28;19926;-73
2023/07/30 03:43:41;;;;;;;;;;;18.40;88.50;;;;;;4980561;28;20523;-72
2023/07/30 03:57:44;;;;;;;;;;;18.40;88.70;;;;;;5156984;22;19928;-72
2023/07/30 04:00:39;;;;;;;;;;;18.50;88.50;;;;;;5019812;28;20043;-63
2023/07/30 04:03:38;;;;;;;;;;;18.50;88.40;;;;;;5008755;28;19924;-64
2023/07/30 04:06:29;;;;;;;;;;;18.50;88.40;;;;;;5025687;28;19928;-64
2023/07/30 04:08:56;;;;;;;;;;;18.50;88.40;;;;;;5026942;28;20036;-64
2023/07/30 04:11:23;;;;;;;;;;;18.50;88.40;;;;;;5019417;28;20276;-62
2023/07/30 04:13:52;;;;;;;;;;;18.60;88.30;;;;;;5018618;28;19929;-64
2023/07/30 04:16:21;;;;;;;;;;;18.50;88.30;;;;;;5025082;28;19931;-64
2023/07/30 04:18:58;;;;;;;;;;;18.50;88.40;;;;;;5025893;28;19928;-63
2023/07/30 04:21:25;;;;;;;;;;;18.50;88.40;;;;;;5027075;28;19921;-63
2023/07/30 04:23:52;;;;;;;;;;;18.50;88.20;;;;;;5027332;28;19921;-64
2023/07/30 04:26:40;;;;;;;;;;;18.60;88.10;;;;;;5025647;28;19925;-63
2023/07/30 04:29:21;;;;;;;;;;;18.60;88.10;;;;;;5029224;28;19929;-62
2023/07/30 04:31:51;;;;;;;;;;;18.60;88.00;;;;;;5003301;28;19925;-63
2023/07/30 04:34:30;;;;;;;;;;;18.60;88.10;;;;;;5007845;28;20024;-63
2023/07/30 04:36:57;;;;;;;;;;;18.60;88.10;;;;;;5027037;28;20429;-62
2023/07/30 04:39:24;;;;;;;;;;;18.60;88.20;;;;;;5008927;28;19924;-63
2023/07/30 04:42:00;;;;;;;;;;;18.60;88.30;;;;;;5008957;28;19921;-64
2023/07/30 04:44:41;;;;;;;;;;;18.60;88.20;;;;;;5003971;28;19944;-64
2023/07/30 04:47:24;;;;;;;;;;;18.60;88.20;;;;;;5007452;28;20016;-64
2023/07/30 04:53:36;;;;;;;;;;;18.50;88.10;;;;;;5023952;28;20576;-63
2023/07/30 04:56:13;;;;;;;;;;;18.50;88.20;;;;;;5004243;28;19979;-63
2023/07/30 04:58:43;;;;;;;;;;;18.50;88.20;;;;;;5008181;28;20338;-63
2023/07/30 05:01:18;;;;;;;;;;;18.50;88.20;;;;;;5004294;28;19972;-64
2023/07/30 05:03:47;;;;;;;;;;;18.60;88.20;;;;;;5026394;28;19951;-63
2023/07/30 05:06:14;;;;;;;;;;;18.60;88.20;;;;;;5023159;28;20396;-63
2023/07/30 05:08:41;;;;;;;;;;;18.60;88.30;;;;;;5025329;28;19929;-63
2023/07/30 05:11:08;;;;;;;;;;;18.50;88.40;;;;;;5025789;28;20360;-64
2023/07/30 05:13:44;;;;;;;;;;;18.60;88.30;;;;;;5026168;28;19947;-63
2023/07/30 05:16:30;;;;;;;;;;;18.60;88.10;;;;;;5024646;28;19929;-69
2023/07/30 05:19:16;;;;;;;;;;;18.60;88.10;;;;;;5025986;28;19927;-70
2023/07/30 05:21:59;;;;;;;;;;;18.60;88.30;;;;;;5026974;28;19925;-72
2023/07/30 05:24:41;;;;;;;;;;;18.70;88.30;;;;;;5023695;28;20299;-70
2023/07/30 05:27:18;;;;;;;;;;;18.60;88.30;;;;;;5026213;28;19921;-70
2023/07/30 05:29:48;;;;;;;;;;;18.80;88.00;;;;;;5026164;28;20376;-71
2023/07/30 05:32:22;;;;;;;;;;;18.80;87.90;;;;;;5025950;28;19925;-71
2023/07/30 05:35:01;;;;;;;;;;;18.80;87.70;;;;;;5019179;28;19940;-70
2023/07/30 05:37:28;;;;;;;;;;;18.90;87.70;;;;;;5021267;28;19921;-71
2023/07/30 05:39:55;;;;;;;;;;;18.90;88.00;;;;;;5026458;28;19945;-71
2023/07/30 05:42:31;;;;;;;;;;;18.90;88.30;;;;;;5012530;28;19932;-70
2023/07/30 05:45:41;;;;;;;;;;;18.90;88.30;;;;;;5017687;28;19928;-71
2023/07/30 05:49:04;;;;;;;;;;;18.90;88.30;;;;;;5021002;28;19924;-71
2023/07/30 05:55:21;;;;;;;;;;;19.10;88.20;;;;;;5343135;22;19920;-70
2023/07/30 06:01:54;;;;;;;;;;;19.20;88.00;;;;;;5041595;28;19923;-71
2023/07/30 06:05:05;;;;;;;;;;;19.20;87.80;;;;;;5038639;28;20512;-71
2023/07/30 06:07:47;;;;;;;;;;;19.20;87.80;;;;;;5041797;28;19931;-70
2023/07/30 06:13:50;;;;;;;;;;;19.10;87.60;;;;;;5038162;28;20409;-71
2023/07/30 06:16:37;;;;;;;;;;;19.10;87.70;;;;;;5040354;28;19925;-70
2023/07/30 06:19:52;;;;;;;;;;;19.10;87.30;;;;;;5042592;28;20588;-71
2023/07/30 06:22:48;;;;;;;;;;;19.10;87.10;;;;;;5041307;28;19927;-71
2023/07/30 06:25:46;;;;;;;;;;;19.10;87.00;;;;;;5040633;28;20563;-70
2023/07/30 06:28:31;;;;;;;;;;;19.10;86.90;;;;;;5040380;28;19925;-70
2023/07/30 06:31:45;;;;;;;;;;;19.20;87.00;;;;;;5040281;28;19946;-70
2023/07/30 06:34:53;;;;;;;;;;;19.30;86.40;;;;;;5038832;28;20763;-70
2023/07/30 06:38:10;;;;;;;;;;;19.30;86.30;;;;;;5040070;28;20298;-71
2023/07/30 06:41:32;;;;;;;;;;;19.40;86.30;;;;;;5040871;28;19932;-70
2023/07/30 06:44:27;;;;;;;;;;;19.50;86.10;;;;;;5022990;28;19932;-70
2023/07/30 06:47:55;;;;;;;;;;;19.60;86.00;;;;;;5036155;28;20382;-70
2023/07/30 07:10:52;;;;;;;;;;;20.30;84.00;;;;;;5037406;28;19932;-71
2023/07/30 07:17:10;;;;;;;;;;;20.40;83.70;;;;;;5040184;28;19974;-72
2023/07/30 07:23:49;;;;;;;;;;;20.50;82.60;;;;;;5037957;28;19932;-71
2023/07/30 07:27:08;;;;;;;;;;;20.50;82.30;;;;;;5021792;28;19921;-69
2023/07/30 07:30:47;;;;;;;;;;;20.60;82.00;;;;;;5036291;28;19936;-70
2023/07/30 07:34:16;;;;;;;;;;;20.60;82.00;;;;;;5040161;28;19936;-70
2023/07/30 07:41:08;;;;;;;;;;;20.80;81.30;;;;;;5038443;28;19966;-70
2023/07/30 07:44:40;;;;;;;;;;;20.80;81.40;;;;;;5039018;28;19931;-70
2023/07/30 07:48:01;;;;;;;;;;;20.90;81.30;;;;;;5037157;28;19935;-72
2023/07/30 07:51:14;;;;;;;;;;;21.10;80.70;;;;;;5035861;28;19928;-72
2023/07/30 07:54:26;;;;;;;;;;;21.00;79.90;;;;;;5038866;28;19937;-71
2023/07/30 08:10:26;;;;;;;;;;;21.10;78.80;;;;;;5036528;28;20416;-70
2023/07/30 08:13:34;;;;;;;;;;;21.30;78.30;;;;;;5038111;28;19961;-69
2023/07/30 08:16:09;;;;;;;;;;;21.50;78.30;;;;;;5037149;28;19928;-69
2023/07/30 08:33:59;;;;;;;;;;;21.70;77.70;;;;;;5037690;28;19928;-70
2023/07/30 08:37:39;;;;;;;;;;;21.60;77.40;;;;;;5043003;28;19978;-69
2023/07/30 08:47:37;;;;;;;;;;;21.30;77.70;;;;;;5042049;28;19932;-69
2023/07/30 08:57:37;;;;;;;;;;;21.20;78.00;;;;;;5030804;28;20028;-70
2023/07/30 09:01:23;;;;;;;;;;;21.10;78.30;;;;;;5041541;28;19937;-69
2023/07/30 09:08:44;;;;;;;;;;;21.20;79.50;;;;;;5041375;28;20011;-73
2023/07/30 09:12:09;;;;;;;;;;;21.20;79.80;;;;;;5041210;28;19932;-72
2023/07/30 09:14:58;;;;;;;;;;;21.30;79.60;;;;;;5042762;28;20114;-72
2023/07/30 09:28:21;;;;;;;;;;;22.00;78.60;;;;;;5043089;28;19971;-73
2023/07/30 09:32:00;;;;;;;;;;;22.20;78.30;;;;;;5040862;28;19928;-72
2023/07/30 09:38:30;;;;;;;;;;;22.60;77.50;;;;;;5042468;28;19944;-72
2023/07/30 09:42:08;;;;;;;;;;;22.60;77.10;;;;;;5042728;28;19977;-73
2023/07/30 09:45:15;;;;;;;;;;;22.60;76.20;;;;;;5040929;28;19932;-71
2023/07/30 09:48:41;;;;;;;;;;;22.60;76.00;;;;;;5040043;28;19935;-71
2023/07/30 09:55:18;;;;;;;;;;;22.60;74.60;;;;;;5038128;28;19959;-72
2023/07/30 10:06:07;;;;;;;;;;;22.70;72.90;;;;;;5042967;28;19967;-72
2023/07/30 10:09:28;;;;;;;;;;;22.90;72.20;;;;;;5039259;28;19928;-72
2023/07/30 10:12:52;;;;;;;;;;;22.90;72.30;;;;;;5041882;28;19988;-72
2023/07/30 10:19:43;;;;;;;;;;;23.00;71.00;;;;;;5041230;28;19924;-69
2023/07/30 10:23:08;;;;;;;;;;;23.00;71.10;;;;;;5041570;28;19932;-70
2023/07/30 10:33:20;;;;;;;;;;;23.00;70.30;;;;;;5040294;28;19942;-69
2023/07/30 10:40:12;;;;;;;;;;;22.80;70.70;;;;;;5040984;28;20398;-70
2023/07/30 10:47:07;;;;;;;;;;;22.20;72.70;;;;;;5039988;28;20398;-70
2023/07/30 10:50:42;;;;;;;;;;;21.60;74.80;;;;;;5041845;28;19971;-70
2023/07/30 10:54:02;;;;;;;;;;;21.20;76.70;;;;;;5041102;28;19932;-68
2023/07/30 11:14:32;;;;;;;;;;;20.70;78.10;;;;;;5039695;28;20279;-71
2023/07/30 11:17:58;;;;;;;;;;;20.80;78.00;;;;;;5041354;28;20047;-71
2023/07/30 11:21:25;;;;;;;;;;;20.70;78.60;;;;;;5040520;28;20010;-69
2023/07/30 11:24:56;;;;;;;;;;;20.90;78.80;;;;;;5039370;28;19931;-70
2023/07/30 11:38:57;;;;;;;;;;;21.10;78.60;;;;;;5040484;28;20051;-73
2023/07/30 12:10:14;;;;;;;;;;;21.30;76.00;;;;;;4979925;28;19914;-73
2023/07/30 12:13:45;;;;;;;;;;;21.30;76.40;;;;;;4981694;28;19945;-73
2023/07/30 12:16:59;;;;;;;;;;;21.20;76.30;;;;;;4981014;28;19928;-73
2023/07/30 12:20:08;;;;;;;;;;;21.20;77.00;;;;;;4983403;28;19928;-73
2023/07/30 12:33:58;;;;;;;;;;;21.70;75.80;;;;;;5040985;28;19920;-73
2023/07/30 12:51:24;;;;;;;;;;;22.10;73.60;;;;;;5044416;28;19936;-73
2023/07/30 12:54:27;;;;;;;;;;;22.30;72.70;;;;;;5043531;28;19982;-73
2023/07/30 12:57:41;;;;;;;;;;;22.50;72.40;;;;;;5040676;28;19932;-72
2023/07/30 13:04:10;;;;;;;;;;;22.30;71.80;;;;;;5043920;28;20031;-72
2023/07/30 13:10:43;;;;;;;;;;;22.00;71.30;;;;;;5041953;28;20043;-72
2023/07/30 13:17:42;;;;;;;;;;;21.90;71.90;;;;;;5041961;28;19963;-71
2023/07/30 13:20:36;;;;;;;;;;;21.90;71.80;;;;;;5042932;28;19928;-72
2023/07/30 13:27:37;;;;;;;;;;;21.90;69.20;;;;;;5041374;28;19931;-70
2023/07/30 14:14:54;;;;;;;;;;;22.10;65.20;;;;;;5040021;28;19921;-69
2023/07/30 14:17:20;;;;;;;;;;;22.10;65.50;;;;;;5039160;28;19927;-70
2023/07/30 14:19:48;;;;;;;;;;;22.10;65.30;;;;;;5041786;28;19921;-67
2023/07/30 14:22:16;;;;;;;;;;;22.10;64.90;;;;;;5041703;28;19920;-68
2023/07/30 14:24:44;;;;;;;;;;;22.20;64.00;;;;;;5024396;28;20357;-68
2023/07/30 14:27:11;;;;;;;;;;;22.20;64.20;;;;;;5039898;28;20008;-68
2023/07/30 14:29:38;;;;;;;;;;;22.20;63.50;;;;;;5041460;28;19947;-68
2023/07/30 14:32:06;;;;;;;;;;;22.10;63.90;;;;;;5038529;28;19932;-69
2023/07/30 14:34:33;;;;;;;;;;;22.10;63.70;;;;;;5041599;28;19976;-67
2023/07/30 14:37:01;;;;;;;;;;;22.10;62.60;;;;;;5026430;28;20404;-68
2023/07/30 14:39:30;;;;;;;;;;;22.10;62.80;;;;;;5040005;28;19925;-69
2023/07/30 14:41:58;;;;;;;;;;;22.10;61.60;;;;;;5040506;28;20372;-70
2023/07/30 14:44:25;;;;;;;;;;;22.10;61.40;;;;;;5042466;28;20030;-70
2023/07/30 14:46:52;;;;;;;;;;;22.10;61.00;;;;;;5032479;28;19929;-67
2023/07/30 14:49:19;;;;;;;;;;;22.10;61.50;;;;;;5030730;28;19931;-67
2023/07/30 14:51:54;;;;;;;;;;;22.20;60.80;;;;;;5040214;28;19929;-69
2023/07/30 14:54:21;;;;;;;;;;;22.30;60.20;;;;;;5039510;28;19921;-69
2023/07/30 14:56:50;;;;;;;;;;;22.30;60.10;;;;;;5039121;28;19921;-69
2023/07/30 14:59:17;;;;;;;;;;;22.20;59.90;;;;;;5039508;28;19979;-68
2023/07/30 15:01:45;;;;;;;;;;;22.20;60.10;;;;;;5040998;28;19924;-69
2023/07/30 15:04:12;;;;;;;;;;;22.20;59.50;;;;;;5041164;28;19970;-69
2023/07/30 15:06:39;;;;;;;;;;;22.10;60.00;;;;;;5041601;28;19978;-70
2023/07/30 15:09:06;;;;;;;;;;;22.20;59.40;;;;;;5040231;28;19931;-67
2023/07/30 15:11:33;;;;;;;;;;;22.20;59.70;;;;;;5039967;28;19925;-69
2023/07/30 15:14:02;;;;;;;;;;;22.20;58.30;;;;;;5039672;28;19925;-69
2023/07/30 15:16:29;;;;;;;;;;;22.20;58.80;;;;;;5041457;28;19951;-69
2023/07/30 15:18:56;;;;;;;;;;;22.20;58.30;;;;;;5040769;28;19946;-69
2023/07/30 15:21:23;;;;;;;;;;;22.20;58.60;;;;;;5040030;28;19921;-71
2023/07/30 15:23:58;;;;;;;;;;;22.20;57.70;;;;;;5041916;28;19925;-70
2023/07/30 15:26:40;;;;;;;;;;;22.20;57.90;;;;;;5038687;28;19925;-71
2023/07/30 15:29:13;;;;;;;;;;;22.10;57.70;;;;;;5040338;28;20504;-68
2023/07/30 15:31:40;;;;;;;;;;;22.10;58.40;;;;;;5040359;28;19980;-69
2023/07/30 15:34:07;;;;;;;;;;;22.10;58.70;;;;;;5022769;28;19978;-68
2023/07/30 15:36:35;;;;;;;;;;;22.10;58.20;;;;;;5042716;28;19971;-72
2023/07/30 15:39:02;;;;;;;;;;;22.10;58.20;;;;;;5040077;28;19975;-71
2023/07/30 15:41:29;;;;;;;;;;;22.00;58.40;;;;;;5040280;28;19925;-70
2023/07/30 15:43:56;;;;;;;;;;;21.90;58.60;;;;;;5040559;28;19949;-70
2023/07/30 15:46:24;;;;;;;;;;;21.80;59.40;;;;;;5042518;28;20439;-70
2023/07/30 15:48:52;;;;;;;;;;;21.90;59.70;;;;;;5043575;28;19924;-70
2023/07/30 15:51:19;;;;;;;;;;;21.90;59.00;;;;;;5042621;28;20352;-69
2023/07/30 15:53:46;;;;;;;;;;;21.90;59.40;;;;;;5044263;28;19999;-70
2023/07/30 15:56:13;;;;;;;;;;;22.00;59.10;;;;;;5043894;28;19925;-67
2023/07/30 15:58:40;;;;;;;;;;;22.00;59.40;;;;;;5044450;28;19925;-69
2023/07/30 16:01:09;;;;;;;;;;;22.00;59.50;;;;;;5042597;28;19928;-69
2023/07/30 16:03:38;;;;;;;;;;;22.10;59.70;;;;;;5040630;28;19925;-69
2023/07/30 16:06:06;;;;;;;;;;;22.10;59.20;;;;;;5044439;28;19974;-69
2023/07/30 16:08:34;;;;;;;;;;;22.10;59.20;;;;;;5043549;28;19928;-70
2023/07/30 16:11:01;;;;;;;;;;;22.10;59.10;;;;;;5041508;28;20013;-70
2023/07/30 16:13:28;;;;;;;;;;;22.10;58.60;;;;;;5043407;28;20002;-69
2023/07/30 16:15:56;;;;;;;;;;;22.10;58.80;;;;;;5044684;28;19966;-68
2023/07/30 16:18:23;;;;;;;;;;;22.10;58.70;;;;;;5044479;28;19968;-69
2023/07/30 16:21:03;;;;;;;;;;;22.00;58.90;;;;;;5044069;28;20299;-70
2023/07/30 16:23:30;;;;;;;;;;;22.00;58.30;;;;;;5043935;28;19921;-70
2023/07/30 16:25:57;;;;;;;;;;;22.00;57.70;;;;;;5043205;28;19946;-69
2023/07/30 16:28:25;;;;;;;;;;;22.00;58.40;;;;;;5042504;28;20273;-69
2023/07/30 16:30:53;;;;;;;;;;;21.90;58.00;;;;;;5043137;28;19924;-69
2023/07/30 16:33:20;;;;;;;;;;;21.90;57.90;;;;;;5040854;28;19971;-69
2023/07/30 16:35:47;;;;;;;;;;;22.00;58.50;;;;;;5041498;28;19931;-67
2023/07/30 16:38:16;;;;;;;;;;;22.00;58.80;;;;;;5042365;28;19925;-68
2023/07/30 16:40:43;;;;;;;;;;;22.00;58.60;;;;;;5043344;28;19929;-70
2023/07/30 16:43:11;;;;;;;;;;;22.00;57.70;;;;;;5042318;28;19929;-69
2023/07/30 16:45:38;;;;;;;;;;;21.90;57.10;;;;;;5043598;28;20457;-70
2023/07/30 16:48:05;;;;;;;;;;;21.80;58.30;;;;;;5042616;28;19933;-69
2023/07/30 16:50:32;;;;;;;;;;;21.80;58.10;;;;;;5037756;28;19999;-76
2023/07/30 16:53:00;;;;;;;;;;;21.80;59.10;;;;;;5043176;28;19931;-69
2023/07/30 16:55:32;;;;;;;;;;;21.70;59.00;;;;;;5043468;28;19925;-68
2023/07/30 16:58:01;;;;;;;;;;;21.70;58.20;;;;;;5041890;28;20015;-66
2023/07/30 17:00:29;;;;;;;;;;;21.70;58.00;;;;;;5033072;28;19929;-67
2023/07/30 17:03:06;;;;;;;;;;;21.80;57.80;;;;;;5040006;28;20858;-66
2023/07/30 17:05:33;;;;;;;;;;;21.70;57.80;;;;;;5042167;28;19960;-67
2023/07/30 17:08:00;;;;;;;;;;;21.60;57.70;;;;;;5042891;28;19927;-67
2023/07/30 17:10:27;;;;;;;;;;;21.60;57.20;;;;;;5043545;28;19929;-65
2023/07/30 17:12:56;;;;;;;;;;;21.60;57.30;;;;;;5043348;28;19974;-67
2023/07/30 17:15:26;;;;;;;;;;;21.50;56.80;;;;;;5041414;28;19932;-65
2023/07/30 17:17:53;;;;;;;;;;;21.50;58.40;;;;;;5044914;28;20000;-64
2023/07/30 17:20:20;;;;;;;;;;;21.50;58.60;;;;;;5032468;28;20015;-64
2023/07/30 17:22:47;;;;;;;;;;;21.60;57.70;;;;;;5032602;28;20443;-64
2023/07/30 17:25:14;;;;;;;;;;;21.50;57.50;;;;;;5043145;28;19925;-65
2023/07/30 17:27:41;;;;;;;;;;;21.50;57.60;;;;;;5042098;28;19940;-65
2023/07/30 17:30:11;;;;;;;;;;;21.50;57.70;;;;;;5040915;28;20398;-67
2023/07/30 17:32:38;;;;;;;;;;;21.60;57.90;;;;;;5024932;28;19929;-64
2023/07/30 17:35:06;;;;;;;;;;;21.60;58.00;;;;;;5041475;28;19921;-64
2023/07/30 17:37:33;;;;;;;;;;;21.50;57.90;;;;;;5041234;28;19930;-61
2023/07/30 17:42:41;;;;;;;;;;;21.40;59.10;;;;;;5030300;28;20031;-62
2023/07/30 17:45:13;;;;;;;;;;;21.30;58.00;;;;;;5043421;28;19929;-61
2023/07/30 17:47:39;;;;;;;;;;;21.30;58.00;;;;;;5046327;28;19949;-66
2023/07/30 17:50:07;;;;;;;;;;;21.30;59.10;;;;;;5042655;28;19927;-70
2023/07/30 17:52:34;;;;;;;;;;;21.30;59.10;;;;;;5045598;28;19928;-68
2023/07/30 17:55:01;;;;;;;;;;;21.20;58.60;;;;;;5039953;28;20002;-66
2023/07/30 17:57:28;;;;;;;;;;;21.20;59.40;;;;;;5024808;28;19925;-67
2023/07/30 17:59:55;;;;;;;;;;;21.10;59.30;;;;;;5041479;28;19924;-67
2023/07/30 18:02:24;;;;;;;;;;;21.10;59.70;;;;;;5039220;28;20039;-66
2023/07/30 18:04:51;;;;;;;;;;;21.10;59.80;;;;;;5043421;28;19947;-67
2023/07/30 18:07:42;;;;;;;;;;;21.00;59.50;;;;;;5043365;28;19978;-66
2023/07/30 18:10:21;;;;;;;;;;;20.90;60.20;;;;;;5002226;28;19964;-66
2023/07/30 18:12:48;;;;;;;;;;;20.90;60.00;;;;;;5043384;28;19968;-67
2023/07/30 18:15:16;;;;;;;;;;;20.90;60.50;;;;;;5042136;28;19943;-66
2023/07/30 18:17:44;;;;;;;;;;;20.90;60.00;;;;;;5042577;28;20016;-66
2023/07/30 18:20:12;;;;;;;;;;;20.90;59.60;;;;;;5040470;28;20364;-66
2023/07/30 18:22:39;;;;;;;;;;;20.80;59.70;;;;;;5042778;28;19929;-67
2023/07/30 18:25:07;;;;;;;;;;;20.70;60.10;;;;;;5036755;28;19979;-67
2023/07/30 18:27:34;;;;;;;;;;;20.70;60.70;;;;;;5024105;28;20457;-67
2023/07/30 18:30:01;;;;;;;;;;;20.60;60.40;;;;;;5024591;28;19924;-68
2023/07/30 18:32:29;;;;;;;;;;;20.60;61.10;;;;;;5040734;28;20376;-67
2023/07/30 18:34:57;;;;;;;;;;;20.50;61.90;;;;;;5041490;28;19986;-67
2023/07/30 18:37:24;;;;;;;;;;;20.50;61.30;;;;;;5037560;28;19924;-67
2023/07/30 18:39:55;;;;;;;;;;;20.50;61.20;;;;;;5042085;28;19925;-67
2023/07/30 18:42:22;;;;;;;;;;;20.40;61.40;;;;;;5041786;28;19927;-67
2023/07/30 18:44:56;;;;;;;;;;;20.30;62.00;;;;;;5042062;28;20391;-66
2023/07/30 18:47:24;;;;;;;;;;;20.30;61.70;;;;;;5042939;28;19928;-74
2023/07/30 18:49:52;;;;;;;;;;;20.30;62.10;;;;;;5046548;28;20423;-75
2023/07/30 18:52:21;;;;;;;;;;;20.20;62.70;;;;;;5044522;28;20012;-75
2023/07/30 18:54:48;;;;;;;;;;;20.20;62.30;;;;;;5047359;28;19978;-73
2023/07/30 18:57:29;;;;;;;;;;;20.20;62.90;;;;;;5045053;28;19924;-74
2023/07/30 19:03:07;;;;;;;;;;;20.10;63.00;;;;;;5047306;28;19937;-74
2023/07/30 19:05:38;;;;;;;;;;;20.10;62.70;;;;;;4971668;28;19922;-73
2023/07/30 19:08:06;;;;;;;;;;;19.90;63.30;;;;;;4970277;28;19922;-75
2023/07/30 19:10:57;;;;;;;;;;;19.90;63.60;;;;;;4959796;28;19958;-74
2023/07/30 19:13:25;;;;;;;;;;;20.00;64.00;;;;;;4955516;28;19922;-75
2023/07/30 19:15:54;;;;;;;;;;;19.90;65.10;;;;;;4968726;28;19933;-75
2023/07/30 19:18:34;;;;;;;;;;;19.70;65.50;;;;;;4966405;28;19929;-73
2023/07/30 19:21:03;;;;;;;;;;;19.70;66.60;;;;;;4966140;28;19957;-73
2023/07/30 19:23:33;;;;;;;;;;;19.60;67.00;;;;;;4966354;28;19926;-75
2023/07/30 19:26:00;;;;;;;;;;;19.60;67.30;;;;;;4968026;28;19930;-75
2023/07/30 19:28:27;;;;;;;;;;;19.50;67.60;;;;;;4967715;28;20282;-74
2023/07/30 19:30:55;;;;;;;;;;;19.40;67.80;;;;;;4970955;28;19926;-76
2023/07/30 19:33:22;;;;;;;;;;;19.40;67.90;;;;;;4966674;28;19926;-74
2023/07/30 19:35:50;;;;;;;;;;;19.40;68.30;;;;;;4952082;28;19926;-74
2023/07/30 19:38:17;;;;;;;;;;;19.40;68.50;;;;;;4966729;28;19953;-74
2023/07/30 19:40:50;;;;;;;;;;;19.40;68.00;;;;;;4984591;28;19921;-73
2023/07/30 19:43:21;;;;;;;;;;;19.30;68.30;;;;;;5040906;28;19987;-75
2023/07/30 19:45:48;;;;;;;;;;;19.30;68.60;;;;;;5039639;28;19929;-74
2023/07/30 19:48:15;;;;;;;;;;;19.20;68.90;;;;;;5040007;28;19929;-72
2023/07/30 19:50:43;;;;;;;;;;;19.20;69.10;;;;;;5038882;28;19925;-73
2023/07/30 19:53:10;;;;;;;;;;;19.20;69.20;;;;;;5037784;28;19925;-73
2023/07/30 19:55:39;;;;;;;;;;;19.20;69.50;;;;;;5036902;28;19920;-74
2023/07/30 20:01:07;;;;;;;;;;;19.10;70.00;;;;;;5139758;27;20279;-76
2023/07/30 20:03:34;;;;;;;;;;;19.10;70.00;;;;;;5134716;27;20297;-74
2023/07/30 20:06:02;;;;;;;;;;;19.10;70.10;;;;;;5135377;27;20400;-75
2023/07/30 20:08:30;;;;;;;;;;;19.10;70.10;;;;;;5134524;27;19992;-74
2023/07/30 20:10:59;;;;;;;;;;;19.10;70.00;;;;;;5135126;27;19927;-74
2023/07/30 20:13:26;;;;;;;;;;;19.10;69.90;;;;;;5135691;27;19954;-74
2023/07/30 20:15:54;;;;;;;;;;;19.10;69.70;;;;;;5120273;27;19931;-75
2023/07/30 20:18:24;;;;;;;;;;;19.10;69.80;;;;;;5133822;27;19938;-75
2023/07/30 20:20:52;;;;;;;;;;;19.20;70.00;;;;;;5133527;27;19978;-75